sensor_id;sensor_type;location;lat;lon;timestamp;pressure;altitude;pressure_sealevel;temperature
17142;BMP180;32805;53.556;9.944;2023-04-05T00:00:36;102420.00;;;3.40
17142;BMP180;32805;53.556;9.944;2023-04-05T00:03:04;102414.00;;;3.40
17142;BMP180;32805;53.556;9.944;2023-04-05T00:05:33;102421.00;;;3.40
17142;BMP180;32805;53.556;9.944;2023-04-05T00:08:02;102424.00;;;3.40
17142;BMP180;32805;53.556;9.944;2023-04-05T00:10:34;102417.00;;;3.40
17142;BMP180;32805;53.556;9.944;2023-04-05T00:13:03;102416.00;;;3.30
17142;BMP180;32805;53.556;9.944;2023-04-05T00:15:30;102426.00;;;3.30
17142;BMP180;32805;53.556;9.944;2023-04-05T00:17:58;102416.00;;;3.30
17142;BMP180;32805;53.556;9.944;2023-04-05T00:20:29;102415.00;;;3.30
17142;BMP180;32805;53.556;9.944;2023-04-05T00:22:57;102421.00;;;3.30
17142;BMP180;32805;53.556;9.944;2023-04-05T00:25:24;102427.00;;;3.30
17142;BMP180;32805;53.556;9.944;2023-04-05T00:27:53;102420.00;;;3.30
17142;BMP180;32805;53.556;9.944;2023-04-05T00:30:21;102412.00;;;3.30
17142;BMP180;32805;53.556;9.944;2023-04-05T00:32:49;102416.00;;;3.20
17142;BMP180;32805;53.556;9.944;2023-04-05T00:35:17;102418.00;;;3.20
17142;BMP180;32805;53.556;9.944;2023-04-05T00:37:45;102411.00;;;3.20
17142;BMP180;32805;53.556;9.944;2023-04-05T00:40:13;102414.00;;;3.20
17142;BMP180;32805;53.556;9.944;2023-04-05T00:42:41;102416.00;;;3.20
17142;BMP180;32805;53.556;9.944;2023-04-05T00:45:10;102424.00;;;3.10
17142;BMP180;32805;53.556;9.944;2023-04-05T00:47:40;102414.00;;;3.10
17142;BMP180;32805;53.556;9.944;2023-04-05T00:50:09;102420.00;;;3.10
17142;BMP180;32805;53.556;9.944;2023-04-05T00:52:38;102414.00;;;3.10
17142;BMP180;32805;53.556;9.944;2023-04-05T00:55:08;102407.00;;;3.00
17142;BMP180;32805;53.556;9.944;2023-04-05T00:57:37;102407.00;;;3.00
17142;BMP180;32805;53.556;9.944;2023-04-05T01:00:06;102402.00;;;3.00
17142;BMP180;32805;53.556;9.944;2023-04-05T01:02:43;102405.00;;;3.00
17142;BMP180;32805;53.556;9.944;2023-04-05T01:05:23;102404.00;;;2.90
17142;BMP180;32805;53.556;9.944;2023-04-05T01:07:58;102400.00;;;2.90
17142;BMP180;32805;53.556;9.944;2023-04-05T01:10:30;102401.00;;;2.90
17142;BMP180;32805;53.556;9.944;2023-04-05T01:13:02;102399.00;;;2.90
17142;BMP180;32805;53.556;9.944;2023-04-05T01:15:29;102403.00;;;2.90
17142;BMP180;32805;53.556;9.944;2023-04-05T01:17:59;102406.00;;;2.90
17142;BMP180;32805;53.556;9.944;2023-04-05T01:20:32;102393.00;;;2.80
17142;BMP180;32805;53.556;9.944;2023-04-05T01:23:11;102391.00;;;2.80
17142;BMP180;32805;53.556;9.944;2023-04-05T01:26:17;102390.00;;;2.80
17142;BMP180;32805;53.556;9.944;2023-04-05T01:31:59;102377.00;;;2.70
17142;BMP180;32805;53.556;9.944;2023-04-05T01:34:35;102382.00;;;2.70
17142;BMP180;32805;53.556;9.944;2023-04-05T01:37:06;102375.00;;;2.70
17142;BMP180;32805;53.556;9.944;2023-04-05T01:39:35;102381.00;;;2.60
17142;BMP180;32805;53.556;9.944;2023-04-05T01:42:04;102365.00;;;2.60
17142;BMP180;32805;53.556;9.944;2023-04-05T01:44:31;102372.00;;;2.60
17142;BMP180;32805;53.556;9.944;2023-04-05T01:47:00;102369.00;;;2.60
17142;BMP180;32805;53.556;9.944;2023-04-05T01:49:28;102360.00;;;2.60
17142;BMP180;32805;53.556;9.944;2023-04-05T01:51:56;102359.00;;;2.60
17142;BMP180;32805;53.556;9.944;2023-04-05T01:54:25;102356.00;;;2.60
17142;BMP180;32805;53.556;9.944;2023-04-05T01:56:53;102365.00;;;2.50
17142;BMP180;32805;53.556;9.944;2023-04-05T01:59:22;102360.00;;;2.50
17142;BMP180;32805;53.556;9.944;2023-04-05T02:01:50;102344.00;;;2.50
17142;BMP180;32805;53.556;9.944;2023-04-05T02:04:19;102362.00;;;2.50
17142;BMP180;32805;53.556;9.944;2023-04-05T02:06:47;102344.00;;;2.50
17142;BMP180;32805;53.556;9.944;2023-04-05T02:09:14;102346.00;;;2.50
17142;BMP180;32805;53.556;9.944;2023-04-05T02:11:44;102351.00;;;2.50
17142;BMP180;32805;53.556;9.944;2023-04-05T02:14:11;102352.00;;;2.50
17142;BMP180;32805;53.556;9.944;2023-04-05T02:16:40;102344.00;;;2.40
17142;BMP180;32805;53.556;9.944;2023-04-05T02:19:09;102343.00;;;2.50
17142;BMP180;32805;53.556;9.944;2023-04-05T02:21:40;102342.00;;;2.40
17142;BMP180;32805;53.556;9.944;2023-04-05T02:24:07;102338.00;;;2.40
17142;BMP180;32805;53.556;9.944;2023-04-05T02:26:37;102348.00;;;2.40
17142;BMP180;32805;53.556;9.944;2023-04-05T02:29:04;102349.00;;;2.40
17142;BMP180;32805;53.556;9.944;2023-04-05T02:31:32;102346.00;;;2.40
17142;BMP180;32805;53.556;9.944;2023-04-05T02:34:00;102354.00;;;2.40
17142;BMP180;32805;53.556;9.944;2023-04-05T02:36:27;102351.00;;;2.30
17142;BMP180;32805;53.556;9.944;2023-04-05T02:38:57;102353.00;;;2.30
17142;BMP180;32805;53.556;9.944;2023-04-05T02:41:24;102351.00;;;2.30
17142;BMP180;32805;53.556;9.944;2023-04-05T02:43:52;102352.00;;;2.30
17142;BMP180;32805;53.556;9.944;2023-04-05T02:46:20;102345.00;;;2.30
17142;BMP180;32805;53.556;9.944;2023-04-05T02:48:47;102345.00;;;2.30
17142;BMP180;32805;53.556;9.944;2023-04-05T02:51:17;102342.00;;;2.20
17142;BMP180;32805;53.556;9.944;2023-04-05T02:53:45;102339.00;;;2.20
17142;BMP180;32805;53.556;9.944;2023-04-05T02:56:15;102341.00;;;2.20
17142;BMP180;32805;53.556;9.944;2023-04-05T02:58:45;102343.00;;;2.20
17142;BMP180;32805;53.556;9.944;2023-04-05T03:01:19;102344.00;;;2.20
17142;BMP180;32805;53.556;9.944;2023-04-05T03:03:48;102345.00;;;2.20
17142;BMP180;32805;53.556;9.944;2023-04-05T03:06:16;102343.00;;;2.20
17142;BMP180;32805;53.556;9.944;2023-04-05T03:08:48;102348.00;;;2.20
17142;BMP180;32805;53.556;9.944;2023-04-05T03:11:21;102328.00;;;2.10
17142;BMP180;32805;53.556;9.944;2023-04-05T03:13:53;102339.00;;;2.10
17142;BMP180;32805;53.556;9.944;2023-04-05T03:16:35;102345.00;;;2.10
17142;BMP180;32805;53.556;9.944;2023-04-05T03:19:12;102343.00;;;2.10
17142;BMP180;32805;53.556;9.944;2023-04-05T03:21:43;102333.00;;;2.10
17142;BMP180;32805;53.556;9.944;2023-04-05T03:24:24;102337.00;;;2.00
17142;BMP180;32805;53.556;9.944;2023-04-05T03:27:00;102331.00;;;2.00
17142;BMP180;32805;53.556;9.944;2023-04-05T03:29:31;102325.00;;;2.00
17142;BMP180;32805;53.556;9.944;2023-04-05T03:32:07;102319.00;;;2.00
17142;BMP180;32805;53.556;9.944;2023-04-05T03:34:40;102323.00;;;2.00
17142;BMP180;32805;53.556;9.944;2023-04-05T03:37:10;102327.00;;;2.00
17142;BMP180;32805;53.556;9.944;2023-04-05T03:39:44;102330.00;;;1.90
17142;BMP180;32805;53.556;9.944;2023-04-05T03:42:15;102342.00;;;1.90
17142;BMP180;32805;53.556;9.944;2023-04-05T03:44:43;102333.00;;;1.90
17142;BMP180;32805;53.556;9.944;2023-04-05T03:47:13;102327.00;;;1.90
17142;BMP180;32805;53.556;9.944;2023-04-05T03:49:41;102327.00;;;1.90
17142;BMP180;32805;53.556;9.944;2023-04-05T03:52:09;102336.00;;;1.90
17142;BMP180;32805;53.556;9.944;2023-04-05T03:54:41;102332.00;;;1.90
17142;BMP180;32805;53.556;9.944;2023-04-05T03:57:10;102339.00;;;1.90
17142;BMP180;32805;53.556;9.944;2023-04-05T03:59:41;102334.00;;;1.90
17142;BMP180;32805;53.556;9.944;2023-04-05T04:02:09;102329.00;;;1.80
17142;BMP180;32805;53.556;9.944;2023-04-05T04:04:37;102325.00;;;1.80
17142;BMP180;32805;53.556;9.944;2023-04-05T04:07:04;102326.00;;;1.80
17142;BMP180;32805;53.556;9.944;2023-04-05T04:09:32;102324.00;;;1.80
17142;BMP180;32805;53.556;9.944;2023-04-05T04:12:06;102320.00;;;1.80
17142;BMP180;32805;53.556;9.944;2023-04-05T04:14:41;102329.00;;;1.80
17142;BMP180;32805;53.556;9.944;2023-04-05T04:17:26;102317.00;;;1.70
17142;BMP180;32805;53.556;9.944;2023-04-05T04:20:17;102323.00;;;1.70
17142;BMP180;32805;53.556;9.944;2023-04-05T04:23:04;102315.00;;;1.70
17142;BMP180;32805;53.556;9.944;2023-04-05T04:25:58;102325.00;;;1.70
17142;BMP180;32805;53.556;9.944;2023-04-05T04:28:45;102321.00;;;1.70
17142;BMP180;32805;53.556;9.944;2023-04-05T04:31:34;102319.00;;;1.70
17142;BMP180;32805;53.556;9.944;2023-04-05T04:34:14;102323.00;;;1.70
17142;BMP180;32805;53.556;9.944;2023-04-05T04:36:52;102316.00;;;1.70
17142;BMP180;32805;53.556;9.944;2023-04-05T04:39:52;102310.00;;;1.70
17142;BMP180;32805;53.556;9.944;2023-04-05T04:42:47;102313.00;;;1.70
17142;BMP180;32805;53.556;9.944;2023-04-05T04:45:34;102306.00;;;1.70
17142;BMP180;32805;53.556;9.944;2023-04-05T04:48:13;102317.00;;;1.80
17142;BMP180;32805;53.556;9.944;2023-04-05T04:50:54;102319.00;;;1.80
17142;BMP180;32805;53.556;9.944;2023-04-05T04:53:25;102311.00;;;1.80
17142;BMP180;32805;53.556;9.944;2023-04-05T04:55:52;102300.00;;;1.80
17142;BMP180;32805;53.556;9.944;2023-04-05T04:58:21;102304.00;;;1.80
17142;BMP180;32805;53.556;9.944;2023-04-05T05:00:58;102309.00;;;1.90
17142;BMP180;32805;53.556;9.944;2023-04-05T05:03:28;102302.00;;;1.90
17142;BMP180;32805;53.556;9.944;2023-04-05T05:05:55;102293.00;;;1.90
17142;BMP180;32805;53.556;9.944;2023-04-05T05:08:28;102300.00;;;2.00
17142;BMP180;32805;53.556;9.944;2023-04-05T05:10:56;102304.00;;;2.00
17142;BMP180;32805;53.556;9.944;2023-04-05T05:13:24;102297.00;;;2.00
17142;BMP180;32805;53.556;9.944;2023-04-05T05:15:51;102305.00;;;2.10
17142;BMP180;32805;53.556;9.944;2023-04-05T05:18:22;102298.00;;;2.10
17142;BMP180;32805;53.556;9.944;2023-04-05T05:20:51;102309.00;;;2.20
17142;BMP180;32805;53.556;9.944;2023-04-05T05:23:19;102302.00;;;2.30
17142;BMP180;32805;53.556;9.944;2023-04-05T05:25:47;102307.00;;;2.40
17142;BMP180;32805;53.556;9.944;2023-04-05T05:28:14;102305.00;;;2.50
17142;BMP180;32805;53.556;9.944;2023-04-05T05:30:42;102304.00;;;2.60
17142;BMP180;32805;53.556;9.944;2023-04-05T05:33:11;102292.00;;;2.70
17142;BMP180;32805;53.556;9.944;2023-04-05T05:35:40;102292.00;;;2.70
17142;BMP180;32805;53.556;9.944;2023-04-05T05:38:09;102286.00;;;2.80
17142;BMP180;32805;53.556;9.944;2023-04-05T05:40:39;102289.00;;;2.80
17142;BMP180;32805;53.556;9.944;2023-04-05T05:43:07;102288.00;;;2.90
17142;BMP180;32805;53.556;9.944;2023-04-05T05:45:36;102283.00;;;2.90
17142;BMP180;32805;53.556;9.944;2023-04-05T05:48:03;102292.00;;;2.90
17142;BMP180;32805;53.556;9.944;2023-04-05T05:50:31;102288.00;;;2.90
17142;BMP180;32805;53.556;9.944;2023-04-05T05:52:59;102279.00;;;3.00
17142;BMP180;32805;53.556;9.944;2023-04-05T05:55:28;102275.00;;;3.00
17142;BMP180;32805;53.556;9.944;2023-04-05T05:57:56;102271.00;;;3.10
17142;BMP180;32805;53.556;9.944;2023-04-05T06:00:24;102285.00;;;3.10
17142;BMP180;32805;53.556;9.944;2023-04-05T06:02:51;102292.00;;;3.10
17142;BMP180;32805;53.556;9.944;2023-04-05T06:05:19;102282.00;;;3.10
17142;BMP180;32805;53.556;9.944;2023-04-05T06:07:47;102277.00;;;3.10
17142;BMP180;32805;53.556;9.944;2023-04-05T06:10:15;102281.00;;;3.00
17142;BMP180;32805;53.556;9.944;2023-04-05T06:12:44;102280.00;;;3.10
17142;BMP180;32805;53.556;9.944;2023-04-05T06:15:11;102269.00;;;3.10
17142;BMP180;32805;53.556;9.944;2023-04-05T06:17:39;102274.00;;;3.10
17142;BMP180;32805;53.556;9.944;2023-04-05T06:20:09;102267.00;;;3.10
17142;BMP180;32805;53.556;9.944;2023-04-05T06:22:38;102269.00;;;3.20
17142;BMP180;32805;53.556;9.944;2023-04-05T06:25:07;102278.00;;;3.20
17142;BMP180;32805;53.556;9.944;2023-04-05T06:27:36;102268.00;;;3.30
17142;BMP180;32805;53.556;9.944;2023-04-05T06:30:07;102262.00;;;3.40
17142;BMP180;32805;53.556;9.944;2023-04-05T06:32:34;102266.00;;;3.50
17142;BMP180;32805;53.556;9.944;2023-04-05T06:35:03;102257.00;;;3.50
17142;BMP180;32805;53.556;9.944;2023-04-05T06:37:31;102256.00;;;3.60
17142;BMP180;32805;53.556;9.944;2023-04-05T06:39:58;102255.00;;;3.70
17142;BMP180;32805;53.556;9.944;2023-04-05T06:42:26;102253.00;;;3.80
17142;BMP180;32805;53.556;9.944;2023-04-05T06:44:59;102263.00;;;3.80
17142;BMP180;32805;53.556;9.944;2023-04-05T06:47:33;102267.00;;;3.90
17142;BMP180;32805;53.556;9.944;2023-04-05T06:50:01;102267.00;;;4.00
17142;BMP180;32805;53.556;9.944;2023-04-05T06:52:29;102257.00;;;4.10
17142;BMP180;32805;53.556;9.944;2023-04-05T06:54:57;102260.00;;;4.10
17142;BMP180;32805;53.556;9.944;2023-04-05T06:57:25;102255.00;;;4.20
17142;BMP180;32805;53.556;9.944;2023-04-05T06:59:53;102260.00;;;4.20
17142;BMP180;32805;53.556;9.944;2023-04-05T07:02:21;102267.00;;;4.30
17142;BMP180;32805;53.556;9.944;2023-04-05T07:04:50;102257.00;;;4.30
17142;BMP180;32805;53.556;9.944;2023-04-05T07:07:18;102261.00;;;4.30
17142;BMP180;32805;53.556;9.944;2023-04-05T07:09:46;102255.00;;;4.40
17142;BMP180;32805;53.556;9.944;2023-04-05T07:12:14;102247.00;;;4.40
17142;BMP180;32805;53.556;9.944;2023-04-05T07:14:41;102248.00;;;4.50
17142;BMP180;32805;53.556;9.944;2023-04-05T07:17:10;102245.00;;;4.50
17142;BMP180;32805;53.556;9.944;2023-04-05T07:19:37;102255.00;;;4.50
17142;BMP180;32805;53.556;9.944;2023-04-05T07:22:06;102258.00;;;4.60
17142;BMP180;32805;53.556;9.944;2023-04-05T07:24:34;102254.00;;;4.60
17142;BMP180;32805;53.556;9.944;2023-04-05T07:27:02;102259.00;;;4.70
17142;BMP180;32805;53.556;9.944;2023-04-05T07:29:30;102263.00;;;4.70
17142;BMP180;32805;53.556;9.944;2023-04-05T07:32:00;102266.00;;;4.80
17142;BMP180;32805;53.556;9.944;2023-04-05T07:34:28;102258.00;;;4.90
17142;BMP180;32805;53.556;9.944;2023-04-05T07:36:55;102260.00;;;4.90
17142;BMP180;32805;53.556;9.944;2023-04-05T07:39:25;102258.00;;;4.90
17142;BMP180;32805;53.556;9.944;2023-04-05T07:41:52;102263.00;;;4.90
17142;BMP180;32805;53.556;9.944;2023-04-05T07:44:20;102262.00;;;4.90
17142;BMP180;32805;53.556;9.944;2023-04-05T07:46:48;102260.00;;;4.90
17142;BMP180;32805;53.556;9.944;2023-04-05T07:49:16;102259.00;;;4.90
17142;BMP180;32805;53.556;9.944;2023-04-05T07:51:43;102245.00;;;4.90
17142;BMP180;32805;53.556;9.944;2023-04-05T07:54:13;102253.00;;;4.90
17142;BMP180;32805;53.556;9.944;2023-04-05T07:56:42;102248.00;;;5.00
17142;BMP180;32805;53.556;9.944;2023-04-05T07:59:11;102247.00;;;5.00
17142;BMP180;32805;53.556;9.944;2023-04-05T08:01:40;102251.00;;;5.10
17142;BMP180;32805;53.556;9.944;2023-04-05T08:04:08;102245.00;;;5.10
17142;BMP180;32805;53.556;9.944;2023-04-05T08:06:36;102247.00;;;5.20
17142;BMP180;32805;53.556;9.944;2023-04-05T08:09:04;102256.00;;;5.20
17142;BMP180;32805;53.556;9.944;2023-04-05T08:11:34;102262.00;;;5.30
17142;BMP180;32805;53.556;9.944;2023-04-05T08:14:03;102252.00;;;5.30
17142;BMP180;32805;53.556;9.944;2023-04-05T08:16:31;102237.00;;;5.40
17142;BMP180;32805;53.556;9.944;2023-04-05T08:18:59;102239.00;;;5.40
17142;BMP180;32805;53.556;9.944;2023-04-05T08:21:27;102232.00;;;5.50
17142;BMP180;32805;53.556;9.944;2023-04-05T08:23:55;102236.00;;;5.50
17142;BMP180;32805;53.556;9.944;2023-04-05T08:26:23;102232.00;;;5.60
17142;BMP180;32805;53.556;9.944;2023-04-05T08:28:51;102230.00;;;5.70
17142;BMP180;32805;53.556;9.944;2023-04-05T08:31:20;102229.00;;;5.70
17142;BMP180;32805;53.556;9.944;2023-04-05T08:33:47;102216.00;;;5.80
17142;BMP180;32805;53.556;9.944;2023-04-05T08:36:15;102226.00;;;6.00
17142;BMP180;32805;53.556;9.944;2023-04-05T08:38:43;102226.00;;;6.00
17142;BMP180;32805;53.556;9.944;2023-04-05T08:41:15;102227.00;;;6.10
17142;BMP180;32805;53.556;9.944;2023-04-05T08:43:54;102220.00;;;6.10
17142;BMP180;32805;53.556;9.944;2023-04-05T08:46:24;102200.00;;;6.10
17142;BMP180;32805;53.556;9.944;2023-04-05T08:48:52;102206.00;;;6.10
17142;BMP180;32805;53.556;9.944;2023-04-05T08:51:20;102204.00;;;6.30
17142;BMP180;32805;53.556;9.944;2023-04-05T08:53:48;102201.00;;;6.30
17142;BMP180;32805;53.556;9.944;2023-04-05T08:56:19;102213.00;;;6.40
17142;BMP180;32805;53.556;9.944;2023-04-05T08:58:57;102211.00;;;6.40
17142;BMP180;32805;53.556;9.944;2023-04-05T09:01:29;102211.00;;;6.50
17142;BMP180;32805;53.556;9.944;2023-04-05T09:03:59;102196.00;;;6.60
17142;BMP180;32805;53.556;9.944;2023-04-05T09:06:28;102206.00;;;6.60
17142;BMP180;32805;53.556;9.944;2023-04-05T09:08:56;102192.00;;;6.60
17142;BMP180;32805;53.556;9.944;2023-04-05T09:11:24;102194.00;;;6.60
17142;BMP180;32805;53.556;9.944;2023-04-05T09:13:52;102198.00;;;6.70
17142;BMP180;32805;53.556;9.944;2023-04-05T09:16:21;102203.00;;;6.70
17142;BMP180;32805;53.556;9.944;2023-04-05T09:18:52;102198.00;;;6.80
17142;BMP180;32805;53.556;9.944;2023-04-05T09:21:21;102198.00;;;6.90
17142;BMP180;32805;53.556;9.944;2023-04-05T09:23:52;102201.00;;;6.90
17142;BMP180;32805;53.556;9.944;2023-04-05T09:26:22;102192.00;;;7.00
17142;BMP180;32805;53.556;9.944;2023-04-05T09:28:57;102190.00;;;7.10
17142;BMP180;32805;53.556;9.944;2023-04-05T09:31:30;102197.00;;;7.10
17142;BMP180;32805;53.556;9.944;2023-04-05T09:34:01;102201.00;;;7.10
17142;BMP180;32805;53.556;9.944;2023-04-05T09:36:32;102195.00;;;7.20
17142;BMP180;32805;53.556;9.944;2023-04-05T09:39:04;102205.00;;;7.20
17142;BMP180;32805;53.556;9.944;2023-04-05T09:41:34;102186.00;;;7.30
17142;BMP180;32805;53.556;9.944;2023-04-05T09:44:02;102187.00;;;7.30
17142;BMP180;32805;53.556;9.944;2023-04-05T09:46:31;102183.00;;;7.30
17142;BMP180;32805;53.556;9.944;2023-04-05T09:49:01;102177.00;;;7.50
17142;BMP180;32805;53.556;9.944;2023-04-05T09:51:33;102170.00;;;7.50
17142;BMP180;32805;53.556;9.944;2023-04-05T09:54:05;102165.00;;;7.60
17142;BMP180;32805;53.556;9.944;2023-04-05T09:56:34;102171.00;;;7.60
17142;BMP180;32805;53.556;9.944;2023-04-05T09:59:07;102175.00;;;7.60
17142;BMP180;32805;53.556;9.944;2023-04-05T10:01:37;102182.00;;;7.70
17142;BMP180;32805;53.556;9.944;2023-04-05T10:04:08;102173.00;;;7.80
17142;BMP180;32805;53.556;9.944;2023-04-05T10:06:37;102175.00;;;7.90
17142;BMP180;32805;53.556;9.944;2023-04-05T10:09:08;102165.00;;;7.80
17142;BMP180;32805;53.556;9.944;2023-04-05T10:11:37;102162.00;;;7.80
17142;BMP180;32805;53.556;9.944;2023-04-05T10:14:06;102155.00;;;7.90
17142;BMP180;32805;53.556;9.944;2023-04-05T10:16:37;102160.00;;;8.00
17142;BMP180;32805;53.556;9.944;2023-04-05T10:19:14;102158.00;;;8.10
17142;BMP180;32805;53.556;9.944;2023-04-05T10:21:44;102150.00;;;8.20
17142;BMP180;32805;53.556;9.944;2023-04-05T10:24:19;102158.00;;;8.20
17142;BMP180;32805;53.556;9.944;2023-04-05T10:26:56;102158.00;;;8.20
17142;BMP180;32805;53.556;9.944;2023-04-05T10:29:33;102154.00;;;8.20
17142;BMP180;32805;53.556;9.944;2023-04-05T10:32:04;102143.00;;;8.40
17142;BMP180;32805;53.556;9.944;2023-04-05T10:34:44;102142.00;;;8.70
17142;BMP180;32805;53.556;9.944;2023-04-05T10:37:25;102152.00;;;8.90
17142;BMP180;32805;53.556;9.944;2023-04-05T10:40:01;102122.00;;;8.90
17142;BMP180;32805;53.556;9.944;2023-04-05T10:42:36;102139.00;;;9.10
17142;BMP180;32805;53.556;9.944;2023-04-05T10:45:07;102132.00;;;9.10
17142;BMP180;32805;53.556;9.944;2023-04-05T10:47:42;102128.00;;;9.20
17142;BMP180;32805;53.556;9.944;2023-04-05T10:50:19;102115.00;;;9.20
17142;BMP180;32805;53.556;9.944;2023-04-05T10:52:48;102102.00;;;9.30
17142;BMP180;32805;53.556;9.944;2023-04-05T10:55:17;102113.00;;;9.50
17142;BMP180;32805;53.556;9.944;2023-04-05T10:57:46;102109.00;;;9.80
17142;BMP180;32805;53.556;9.944;2023-04-05T11:00:14;102110.00;;;9.90
17142;BMP180;32805;53.556;9.944;2023-04-05T11:02:43;102111.00;;;9.80
17142;BMP180;32805;53.556;9.944;2023-04-05T11:05:32;102111.00;;;9.70
17142;BMP180;32805;53.556;9.944;2023-04-05T11:08:05;102094.00;;;9.70
17142;BMP180;32805;53.556;9.944;2023-04-05T11:10:35;102105.00;;;9.90
17142;BMP180;32805;53.556;9.944;2023-04-05T11:13:08;102101.00;;;10.00
17142;BMP180;32805;53.556;9.944;2023-04-05T11:15:36;102097.00;;;10.00
17142;BMP180;32805;53.556;9.944;2023-04-05T11:18:09;102101.00;;;10.10
17142;BMP180;32805;53.556;9.944;2023-04-05T11:20:46;102097.00;;;10.10
17142;BMP180;32805;53.556;9.944;2023-04-05T11:23:18;102091.00;;;10.10
17142;BMP180;32805;53.556;9.944;2023-04-05T11:25:50;102086.00;;;10.00
17142;BMP180;32805;53.556;9.944;2023-04-05T11:28:22;102087.00;;;9.90
17142;BMP180;32805;53.556;9.944;2023-04-05T11:30:52;102096.00;;;9.90
17142;BMP180;32805;53.556;9.944;2023-04-05T11:33:52;102097.00;;;9.80
17142;BMP180;32805;53.556;9.944;2023-04-05T11:36:35;102088.00;;;9.80
17142;BMP180;32805;53.556;9.944;2023-04-05T11:39:25;102076.00;;;9.80
17142;BMP180;32805;53.556;9.944;2023-04-05T11:42:01;102073.00;;;9.90
17142;BMP180;32805;53.556;9.944;2023-04-05T11:44:38;102078.00;;;10.00
17142;BMP180;32805;53.556;9.944;2023-04-05T11:47:07;102073.00;;;10.10
17142;BMP180;32805;53.556;9.944;2023-04-05T11:49:34;102069.00;;;10.00
17142;BMP180;32805;53.556;9.944;2023-04-05T11:52:14;102068.00;;;10.00
17142;BMP180;32805;53.556;9.944;2023-04-05T11:54:43;102066.00;;;10.00
17142;BMP180;32805;53.556;9.944;2023-04-05T11:57:18;102062.00;;;10.10
17142;BMP180;32805;53.556;9.944;2023-04-05T11:59:48;102050.00;;;10.20
17142;BMP180;32805;53.556;9.944;2023-04-05T12:02:17;102054.00;;;10.50
17142;BMP180;32805;53.556;9.944;2023-04-05T12:04:52;102045.00;;;10.90
17142;BMP180;32805;53.556;9.944;2023-04-05T12:07:24;102038.00;;;11.30
17142;BMP180;32805;53.556;9.944;2023-04-05T12:10:01;102037.00;;;11.60
17142;BMP180;32805;53.556;9.944;2023-04-05T12:12:36;102030.00;;;11.80
17142;BMP180;32805;53.556;9.944;2023-04-05T12:15:06;102018.00;;;11.80
17142;BMP180;32805;53.556;9.944;2023-04-05T12:17:42;102022.00;;;11.70
17142;BMP180;32805;53.556;9.944;2023-04-05T12:20:12;102031.00;;;11.30
17142;BMP180;32805;53.556;9.944;2023-04-05T12:22:43;102037.00;;;11.00
17142;BMP180;32805;53.556;9.944;2023-04-05T12:25:12;102031.00;;;10.60
17142;BMP180;32805;53.556;9.944;2023-04-05T12:27:40;102038.00;;;10.40
17142;BMP180;32805;53.556;9.944;2023-04-05T12:30:10;102023.00;;;10.10
17142;BMP180;32805;53.556;9.944;2023-04-05T12:32:41;102031.00;;;10.00
17142;BMP180;32805;53.556;9.944;2023-04-05T12:35:14;102031.00;;;9.90
17142;BMP180;32805;53.556;9.944;2023-04-05T12:37:43;102031.00;;;9.80
17142;BMP180;32805;53.556;9.944;2023-04-05T12:40:12;102032.00;;;9.80
17142;BMP180;32805;53.556;9.944;2023-04-05T12:42:40;102025.00;;;9.60
17142;BMP180;32805;53.556;9.944;2023-04-05T12:45:11;102024.00;;;9.60
17142;BMP180;32805;53.556;9.944;2023-04-05T12:47:49;102024.00;;;9.60
17142;BMP180;32805;53.556;9.944;2023-04-05T12:50:18;102024.00;;;9.40
17142;BMP180;32805;53.556;9.944;2023-04-05T12:52:54;102011.00;;;9.30
17142;BMP180;32805;53.556;9.944;2023-04-05T12:55:22;102023.00;;;9.20
17142;BMP180;32805;53.556;9.944;2023-04-05T13:00:20;102006.00;;;9.10
17142;BMP180;32805;53.556;9.944;2023-04-05T13:02:51;102011.00;;;9.20
17142;BMP180;32805;53.556;9.944;2023-04-05T13:05:20;102014.00;;;9.10
17142;BMP180;32805;53.556;9.944;2023-04-05T13:07:48;102004.00;;;9.20
17142;BMP180;32805;53.556;9.944;2023-04-05T13:10:18;102008.00;;;9.20
17142;BMP180;32805;53.556;9.944;2023-04-05T13:12:46;101997.00;;;9.30
17142;BMP180;32805;53.556;9.944;2023-04-05T13:15:15;101999.00;;;9.40
17142;BMP180;32805;53.556;9.944;2023-04-05T13:17:44;101996.00;;;9.50
17142;BMP180;32805;53.556;9.944;2023-04-05T13:20:16;101993.00;;;9.60
17142;BMP180;32805;53.556;9.944;2023-04-05T13:22:44;101987.00;;;9.80
17142;BMP180;32805;53.556;9.944;2023-04-05T13:25:12;101989.00;;;10.20
17142;BMP180;32805;53.556;9.944;2023-04-05T13:27:41;101981.00;;;10.60
17142;BMP180;32805;53.556;9.944;2023-04-05T13:30:10;101988.00;;;11.00
17142;BMP180;32805;53.556;9.944;2023-04-05T13:32:37;101984.00;;;11.00
17142;BMP180;32805;53.556;9.944;2023-04-05T13:35:07;101964.00;;;11.10
17142;BMP180;32805;53.556;9.944;2023-04-05T13:37:35;101970.00;;;11.00
17142;BMP180;32805;53.556;9.944;2023-04-05T13:40:04;101977.00;;;10.80
17142;BMP180;32805;53.556;9.944;2023-04-05T13:42:32;101971.00;;;10.70
17142;BMP180;32805;53.556;9.944;2023-04-05T13:45:01;101972.00;;;10.50
17142;BMP180;32805;53.556;9.944;2023-04-05T13:47:28;101972.00;;;10.40
17142;BMP180;32805;53.556;9.944;2023-04-05T13:49:56;101970.00;;;10.20
17142;BMP180;32805;53.556;9.944;2023-04-05T13:52:24;101970.00;;;10.00
17142;BMP180;32805;53.556;9.944;2023-04-05T13:54:52;101968.00;;;9.90
17142;BMP180;32805;53.556;9.944;2023-04-05T13:57:29;101975.00;;;9.80
17142;BMP180;32805;53.556;9.944;2023-04-05T13:59:57;101968.00;;;9.70
17142;BMP180;32805;53.556;9.944;2023-04-05T14:02:27;101967.00;;;9.70
17142;BMP180;32805;53.556;9.944;2023-04-05T14:04:55;101969.00;;;9.60
17142;BMP180;32805;53.556;9.944;2023-04-05T14:07:23;101977.00;;;9.50
17142;BMP180;32805;53.556;9.944;2023-04-05T14:09:51;101967.00;;;9.40
17142;BMP180;32805;53.556;9.944;2023-04-05T14:12:18;101960.00;;;9.30
17142;BMP180;32805;53.556;9.944;2023-04-05T14:14:46;101971.00;;;9.30
17142;BMP180;32805;53.556;9.944;2023-04-05T14:17:14;101968.00;;;9.20
17142;BMP180;32805;53.556;9.944;2023-04-05T14:19:43;101962.00;;;9.20
17142;BMP180;32805;53.556;9.944;2023-04-05T14:22:11;101961.00;;;9.20
17142;BMP180;32805;53.556;9.944;2023-04-05T14:24:38;101960.00;;;9.20
17142;BMP180;32805;53.556;9.944;2023-04-05T14:27:06;101955.00;;;9.20
17142;BMP180;32805;53.556;9.944;2023-04-05T14:29:34;101965.00;;;9.40
17142;BMP180;32805;53.556;9.944;2023-04-05T14:32:02;101952.00;;;9.50